Time;durP1;ratioP1;P1;durP2;ratioP2;P2;SDS_P1;SDS_P2;PMS_P1;PMS_P2;Temp;Humidity;BMP_temperature;BMP_pressure;BME280_temperature;BME280_humidity;BME280_pressure;Samples;Min_cycle;Max_cycle;Signal;HPM_P1;HPM_P2
2022/04/12 00:01:34;;;;;;;5.27;3.90;;;;;;;5.12;44.09;95365.81;5023879;28;20237;-63
2022/04/12 00:04:03;;;;;;;5.37;3.20;;;;;;;5.13;43.94;95364.03;5012643;28;20222;-63
2022/04/12 00:06:29;;;;;;;5.50;3.50;;;;;;;5.09;44.18;95356.44;5019666;28;20225;-60
2022/04/12 00:08:54;;;;;;;4.60;3.40;;;;;;;5.09;44.49;95350.41;5039714;28;20276;-64
2022/04/12 00:11:20;;;;;;;4.93;3.43;;;;;;;5.13;44.14;95354.44;5035932;28;20241;-65
2022/04/12 00:13:45;;;;;;;3.67;3.27;;;;;;;5.02;44.35;95350.00;5037020;28;20237;-65
2022/04/12 00:16:11;;;;;;;4.50;3.30;;;;;;;4.98;44.33;95359.00;5009693;28;20226;-65
2022/04/12 00:21:20;;;;;;;4.83;3.53;;;;;;;4.99;44.69;95346.78;5030684;28;20220;-64
2022/04/12 00:23:47;;;;;;;3.80;3.50;;;;;;;4.93;44.87;95349.84;5037827;28;20230;-64
2022/04/12 00:26:14;;;;;;;4.43;3.37;;;;;;;4.93;45.37;95348.06;5038346;28;20218;-64
2022/04/12 00:28:41;;;;;;;3.80;3.50;;;;;;;4.95;44.58;95329.72;5036296;28;20229;-67
2022/04/12 00:31:07;;;;;;;4.07;3.40;;;;;;;4.95;44.72;95333.16;5035415;28;20587;-69
2022/04/12 00:33:33;;;;;;;4.60;3.43;;;;;;;4.95;44.69;95340.16;5033710;28;20257;-68
2022/04/12 00:36:00;;;;;;;4.07;3.63;;;;;;;4.98;45.05;95332.94;5031452;28;20229;-60
2022/04/12 00:38:27;;;;;;;4.80;4.00;;;;;;;4.94;44.78;95331.47;5039872;28;20332;-62
2022/04/12 00:40:54;;;;;;;3.63;3.30;;;;;;;4.97;44.65;95335.63;5031264;28;20236;-62
2022/04/12 00:43:20;;;;;;;5.60;3.40;;;;;;;4.90;44.52;95329.22;5017888;28;20232;-59
2022/04/12 00:45:46;;;;;;;4.60;3.73;;;;;;;4.89;44.89;95330.13;5017267;28;20234;-62
2022/04/12 00:48:13;;;;;;;3.77;3.40;;;;;;;4.95;45.29;95329.72;5015363;28;20280;-58
2022/04/12 00:50:39;;;;;;;3.70;3.30;;;;;;;4.85;45.50;95330.38;5033104;28;20206;-58
2022/04/12 00:53:07;;;;;;;4.27;3.80;;;;;;;4.79;45.60;95325.59;5030044;28;20226;-60
2022/04/12 00:55:34;;;;;;;4.30;3.60;;;;;;;4.81;45.21;95333.28;5030331;28;20226;-62
2022/04/12 00:58:05;;;;;;;4.33;3.30;;;;;;;4.74;45.60;95332.91;5037635;28;20283;-68
2022/04/12 01:00:31;;;;;;;5.03;3.70;;;;;;;4.81;45.87;95325.47;5034713;28;20240;-69
2022/04/12 01:02:57;;;;;;;5.13;3.47;;;;;;;4.79;45.48;95336.03;5045638;28;20205;-69
2022/04/12 01:05:22;;;;;;;4.17;3.77;;;;;;;4.77;45.70;95337.88;5039628;28;20221;-59
2022/04/12 01:07:48;;;;;;;4.73;3.73;;;;;;;4.75;45.28;95329.34;5023797;28;20242;-62
2022/04/12 01:10:13;;;;;;;6.67;3.60;;;;;;;4.73;46.02;95331.25;5031252;28;20217;-62
2022/04/12 01:12:41;;;;;;;4.23;3.33;;;;;;;4.68;46.15;95338.56;5023242;28;20281;-65
2022/04/12 01:15:14;;;;;;;5.17;4.10;;;;;;;4.67;46.54;95330.84;5015081;28;20249;-60
2022/04/12 01:17:41;;;;;;;3.97;3.57;;;;;;;4.74;45.63;95329.47;5018642;28;20252;-59
2022/04/12 01:20:07;;;;;;;4.03;3.63;;;;;;;4.77;45.58;95324.03;5025098;28;20233;-59
2022/04/12 01:22:36;;;;;;;5.30;3.50;;;;;;;4.77;45.35;95321.44;5029826;28;20227;-65
2022/04/12 01:25:03;;;;;;;5.90;4.37;;;;;;;4.77;45.55;95319.66;5027958;28;20395;-64
2022/04/12 01:27:29;;;;;;;4.33;3.83;;;;;;;4.76;45.18;95325.00;5042315;28;20233;-59
2022/04/12 01:29:55;;;;;;;4.03;3.43;;;;;;;4.61;45.47;95324.28;5037288;28;20213;-65
2022/04/12 01:32:21;;;;;;;4.53;3.63;;;;;;;4.61;45.78;95321.69;5025186;28;20213;-64
2022/04/12 01:34:46;;;;;;;4.60;3.80;;;;;;;4.64;45.39;95326.66;5036127;28;20230;-58
2022/04/12 01:37:12;;;;;;;4.63;3.97;;;;;;;4.66;46.07;95330.00;5035972;28;20221;-58
2022/04/12 01:39:37;;;;;;;4.80;4.10;;;;;;;4.67;45.70;95326.44;5036098;28;20229;-63
2022/04/12 01:42:03;;;;;;;4.57;3.43;;;;;;;4.62;46.03;95320.72;5033786;28;20343;-58
2022/04/12 01:44:28;;;;;;;7.20;3.83;;;;;;;4.67;46.13;95331.66;5015718;28;20222;-63
2022/04/12 01:46:54;;;;;;;6.17;3.97;;;;;;;4.69;46.15;95326.34;5029299;28;20267;-58
2022/04/12 01:49:19;;;;;;;4.00;3.50;;;;;;;4.69;46.01;95323.75;5037360;28;20221;-64
2022/04/12 01:51:45;;;;;;;4.97;3.77;;;;;;;4.59;47.09;95324.38;5038440;28;20490;-63
2022/04/12 01:54:11;;;;;;;4.17;3.77;;;;;;;4.47;47.61;95325.25;5041445;28;20282;-58
2022/04/12 01:56:36;;;;;;;5.00;3.60;;;;;;;4.49;47.05;95322.53;5037471;28;20241;-67
2022/04/12 01:59:04;;;;;;;4.70;3.73;;;;;;;4.42;47.24;95325.56;5027291;28;20257;-61
2022/04/12 02:01:29;;;;;;;4.13;3.73;;;;;;;4.42;47.52;95328.19;5029532;28;20226;-65
2022/04/12 02:03:55;;;;;;;4.77;3.70;;;;;;;4.23;48.28;95327.78;5024556;28;20228;-64
2022/04/12 02:06:21;;;;;;;4.37;3.53;;;;;;;4.26;48.47;95324.97;5037107;28;20206;-58
2022/04/12 02:08:47;;;;;;;5.07;4.03;;;;;;;4.23;48.71;95330.41;5045381;28;20202;-59
2022/04/12 02:11:13;;;;;;;6.60;4.80;;;;;;;4.22;48.97;95331.31;5040392;28;20236;-67
2022/04/12 02:13:38;;;;;;;6.30;5.17;;;;;;;4.12;49.24;95333.72;5043790;28;20217;-64
2022/04/12 02:16:04;;;;;;;8.97;5.47;;;;;;;4.04;49.76;95324.78;5037807;28;20217;-57
2022/04/12 02:18:30;;;;;;;7.17;5.30;;;;;;;3.97;49.77;95324.34;5035912;28;20225;-62
2022/04/12 02:20:55;;;;;;;9.77;6.07;;;;;;;3.97;50.15;95319.97;5036832;28;20222;-57
2022/04/12 02:23:21;;;;;;;9.27;5.77;;;;;;;3.83;50.33;95314.91;5018029;28;20241;-64
2022/04/12 02:25:47;;;;;;;9.73;5.63;;;;;;;3.73;50.90;95319.03;5031053;28;20229;-58
2022/04/12 02:28:12;;;;;;;7.93;5.53;;;;;;;3.58;51.79;95312.25;5044532;28;20225;-62
2022/04/12 02:30:38;;;;;;;8.97;5.77;;;;;;;3.58;51.64;95315.69;5035150;28;20321;-62
2022/04/12 02:33:03;;;;;;;9.27;6.07;;;;;;;3.62;51.89;95316.34;5037158;28;20228;-62
2022/04/12 02:35:30;;;;;;;7.63;5.93;;;;;;;3.60;52.07;95323.41;5034987;28;20270;-64
2022/04/12 02:37:55;;;;;;;6.83;5.83;;;;;;;3.59;52.28;95324.34;5040313;28;20233;-62
2022/04/12 02:40:21;;;;;;;9.63;5.87;;;;;;;3.54;52.36;95335.03;5027687;28;20214;-62
2022/04/12 02:42:46;;;;;;;7.23;5.23;;;;;;;3.46;52.96;95324.31;5039880;28;20217;-61
2022/04/12 02:45:12;;;;;;;9.70;6.03;;;;;;;3.41;53.16;95328.97;5037898;28;20208;-58
2022/04/12 02:47:37;;;;;;;11.57;7.00;;;;;;;3.40;53.59;95322.94;5038315;28;20312;-62
2022/04/12 02:50:03;;;;;;;12.03;7.10;;;;;;;3.25;54.02;95329.97;5034650;28;20232;-61
2022/04/12 02:52:29;;;;;;;12.73;7.13;;;;;;;3.18;54.49;95323.53;5024104;28;20227;-62
2022/04/12 02:54:54;;;;;;;14.57;6.20;;;;;;;3.24;54.09;95330.09;5028885;28;20239;-61
2022/04/12 02:57:19;;;;;;;7.80;6.37;;;;;;;3.29;54.15;95323.66;5036705;28;20232;-61
2022/04/12 02:59:45;;;;;;;8.00;6.10;;;;;;;3.30;53.79;95324.47;5033315;28;20259;-61
2022/04/12 03:02:10;;;;;;;12.03;6.53;;;;;;;3.31;53.67;95319.19;5035141;28;20292;-64
2022/04/12 03:04:36;;;;;;;10.57;6.73;;;;;;;3.18;53.90;95320.94;5047233;28;20233;-58
2022/04/12 03:07:01;;;;;;;10.73;6.30;;;;;;;3.06;54.37;95319.09;5028365;28;20254;-68
2022/04/12 03:09:28;;;;;;;10.73;7.40;;;;;;;3.02;55.09;95325.41;5021835;28;20230;-57
2022/04/12 03:11:54;;;;;;;16.33;6.40;;;;;;;3.09;54.84;95327.53;5036633;28;20213;-58
2022/04/12 03:14:19;;;;;;;11.30;6.33;;;;;;;3.01;54.66;95324.59;5042071;28;20209;-64
2022/04/12 03:16:45;;;;;;;9.03;7.17;;;;;;;3.07;54.66;95325.97;5024991;28;20245;-64
2022/04/12 03:19:10;;;;;;;11.83;6.93;;;;;;;2.98;54.99;95329.16;5026877;28;20307;-63
2022/04/12 03:21:36;;;;;;;11.40;6.83;;;;;;;2.84;55.77;95324.84;5031318;28;20314;-64
2022/04/12 03:24:01;;;;;;;9.20;6.53;;;;;;;2.83;55.93;95326.63;5039807;28;20241;-64
2022/04/12 03:26:26;;;;;;;15.97;6.70;;;;;;;2.82;55.30;95326.69;5039988;28;20226;-58
2022/04/12 03:28:52;;;;;;;10.30;6.90;;;;;;;2.83;55.50;95321.44;5035303;28;20227;-58
2022/04/12 03:31:17;;;;;;;11.90;7.03;;;;;;;2.81;55.67;95325.88;5036955;28;20257;-59
2022/04/12 03:33:43;;;;;;;14.37;7.80;;;;;;;2.73;55.87;95337.69;5033417;28;20354;-63
2022/04/12 03:36:08;;;;;;;12.87;7.57;;;;;;;2.79;55.80;95339.88;5035313;28;20206;-62
2022/04/12 03:38:39;;;;;;;12.43;7.97;;;;;;;2.67;56.10;95351.03;5043487;28;20208;-61
2022/04/12 03:41:06;;;;;;;14.17;7.07;;;;;;;2.65;56.37;95336.38;5035216;28;20261;-62
2022/04/12 03:43:32;;;;;;;13.20;7.47;;;;;;;2.57;57.01;95343.00;5034029;28;20226;-62
2022/04/12 03:45:57;;;;;;;12.17;7.20;;;;;;;2.61;56.99;95344.47;5034087;28;20232;-57
2022/04/12 03:48:22;;;;;;;12.67;7.53;;;;;;;2.62;56.65;95341.78;5032573;28;20221;-61
2022/04/12 03:50:48;;;;;;;11.30;6.97;;;;;;;2.63;56.71;95342.59;5035660;28;20212;-61
2022/04/12 03:53:13;;;;;;;10.27;7.50;;;;;;;2.61;56.32;95337.50;5019281;28;20223;-63
2022/04/12 03:55:40;;;;;;;12.77;6.97;;;;;;;2.51;56.90;95343.34;5031557;28;20418;-63
2022/04/12 03:58:08;;;;;;;14.60;7.37;;;;;;;2.61;56.28;95347.88;5023913;28;20240;-61
2022/04/12 04:00:34;;;;;;;9.80;7.07;;;;;;;2.63;55.94;95347.78;5024562;28;20226;-62
2022/04/12 04:03:00;;;;;;;10.20;6.63;;;;;;;2.70;56.29;95353.44;5038422;28;20212;-60
2022/04/12 04:05:26;;;;;;;9.80;6.93;;;;;;;2.58;56.20;95349.84;5034409;28;20230;-63
2022/04/12 04:07:52;;;;;;;11.30;7.80;;;;;;;2.52;56.70;95353.66;5033593;28;20226;-65
2022/04/12 04:10:18;;;;;;;18.10;8.00;;;;;;;2.56;56.62;95357.72;5035260;28;20221;-63
2022/04/12 04:12:44;;;;;;;25.73;8.27;;;;;;;2.64;56.69;95355.47;5038089;28;20225;-68
2022/04/12 04:15:14;;;;;;;19.77;8.40;;;;;;;2.64;56.37;95363.25;5036442;28;20209;-64
2022/04/12 04:17:44;;;;;;;12.23;7.13;;;;;;;2.64;56.41;95354.66;5030326;28;20289;-63
2022/04/12 04:20:12;;;;;;;20.30;7.70;;;;;;;2.65;56.32;95362.34;5036887;28;20222;-65
2022/04/12 04:22:38;;;;;;;16.77;6.93;;;;;;;2.75;55.94;95352.22;5037925;28;20233;-61
2022/04/12 04:25:04;;;;;;;13.47;7.67;;;;;;;2.76;55.77;95364.28;5033532;28;20217;-64
2022/04/12 04:27:29;;;;;;;13.67;7.80;;;;;;;2.70;56.00;95364.66;5035771;28;20237;-64
2022/04/12 04:29:58;;;;;;;10.57;7.10;;;;;;;2.78;55.57;95369.38;5038880;28;20206;-65
2022/04/12 04:32:23;;;;;;;9.53;6.23;;;;;;;2.80;54.92;95367.50;5016536;28;20210;-60
2022/04/12 04:34:49;;;;;;;9.73;6.37;;;;;;;2.79;55.38;95371.03;5025544;28;20303;-61
2022/04/12 04:37:14;;;;;;;10.67;6.87;;;;;;;2.90;55.46;95376.41;5022467;28;20222;-65
2022/04/12 04:39:40;;;;;;;9.20;6.37;;;;;;;2.97;55.17;95376.84;5040386;28;20230;-65
2022/04/12 04:42:05;;;;;;;10.20;7.10;;;;;;;2.88;55.67;95373.88;5033446;28;20324;-66
2022/04/12 04:44:32;;;;;;;10.70;6.37;;;;;;;2.87;55.93;95382.63;4998523;28;20241;-62
2022/04/12 04:46:58;;;;;;;15.23;7.20;;;;;;;3.05;55.27;95372.84;5024095;28;20348;-63
2022/04/12 04:49:23;;;;;;;10.10;6.70;;;;;;;3.13;54.62;95372.34;5028146;28;20285;-62
2022/04/12 04:51:49;;;;;;;9.97;6.97;;;;;;;3.21;53.79;95377.06;5037229;28;20244;-63
2022/04/12 04:54:14;;;;;;;8.83;6.40;;;;;;;3.24;54.32;95374.28;5033395;28;20215;-63
2022/04/12 04:56:39;;;;;;;12.77;7.13;;;;;;;3.22;54.34;95378.72;5036882;28;20260;-64
2022/04/12 04:59:05;;;;;;;9.60;6.53;;;;;;;3.38;53.95;95379.41;5039958;28;20224;-65
2022/04/12 05:01:30;;;;;;;10.20;6.67;;;;;;;3.50;53.13;95381.22;5035191;28;20240;-68
2022/04/12 05:03:56;;;;;;;11.20;6.27;;;;;;;3.48;53.06;95382.25;5011299;28;20252;-63
2022/04/12 05:06:21;;;;;;;9.70;6.60;;;;;;;3.42;53.51;95377.44;5017344;28;20354;-64
2022/04/12 05:08:47;;;;;;;10.97;6.93;;;;;;;3.49;53.28;95373.50;5032338;28;20206;-66
2022/04/12 05:11:12;;;;;;;12.03;6.87;;;;;;;3.65;52.98;95383.72;5034162;28;20234;-62
2022/04/12 05:13:38;;;;;;;11.60;6.80;;;;;;;3.65;52.98;95388.94;5035287;28;20243;-58
2022/04/12 05:16:03;;;;;;;19.20;7.50;;;;;;;3.64;52.64;95375.09;5032509;28;20228;-59
2022/04/12 05:18:29;;;;;;;11.93;7.57;;;;;;;3.79;52.42;95385.41;5029856;28;20238;-59
2022/04/12 05:20:55;;;;;;;17.70;7.47;;;;;;;4.01;51.66;95390.03;5047861;28;20232;-60
2022/04/12 05:23:20;;;;;;;11.50;7.47;;;;;;;3.91;51.98;95385.44;5041344;28;20217;-58
2022/04/12 05:25:45;;;;;;;10.87;6.63;;;;;;;4.04;51.64;95384.63;5028992;28;20237;-58
2022/04/12 05:28:11;;;;;;;9.27;7.40;;;;;;;4.06;51.44;95378.38;5023016;28;20218;-58
2022/04/12 05:30:36;;;;;;;10.60;7.87;;;;;;;4.01;51.29;95385.69;5028807;28;20222;-58
2022/04/12 05:33:02;;;;;;;15.97;8.17;;;;;;;4.15;50.83;95384.75;5011539;28;20218;-58
2022/04/12 05:35:27;;;;;;;10.20;7.13;;;;;;;4.25;50.42;95384.94;5020402;28;20234;-58
2022/04/12 05:37:53;;;;;;;13.07;8.10;;;;;;;4.30;50.49;95388.88;5026040;28;20225;-60
2022/04/12 05:40:21;;;;;;;10.40;7.40;;;;;;;4.39;49.69;95380.47;5030260;28;20230;-59
2022/04/12 05:42:48;;;;;;;13.63;8.53;;;;;;;4.38;50.08;95384.03;5032908;28;20249;-59
2022/04/12 05:45:15;;;;;;;14.10;8.10;;;;;;;4.46;49.84;95372.22;5041610;28;20321;-60
2022/04/12 05:47:43;;;;;;;15.53;8.47;;;;;;;4.46;49.96;95378.25;5039057;28;20201;-60
2022/04/12 05:50:10;;;;;;;13.47;8.00;;;;;;;4.61;49.71;95374.59;5041954;28;20229;-58
2022/04/12 05:52:35;;;;;;;10.87;7.33;;;;;;;4.74;48.85;95368.53;5041727;28;20225;-60
2022/04/12 05:55:01;;;;;;;12.50;7.73;;;;;;;4.80;48.95;95375.94;5039435;28;20243;-60
2022/04/12 05:57:26;;;;;;;12.17;7.80;;;;;;;4.92;48.29;95375.06;5044728;28;20341;-60
2022/04/12 05:59:52;;;;;;;13.53;8.20;;;;;;;4.94;48.39;95378.38;5039895;28;20222;-60
2022/04/12 06:02:17;;;;;;;15.97;8.40;;;;;;;5.03;47.85;95374.31;5020723;28;20234;-60
2022/04/12 06:04:43;;;;;;;10.77;8.40;;;;;;;5.07;47.92;95376.56;5024905;28;20419;-58
2022/04/12 06:07:08;;;;;;;15.10;9.43;;;;;;;5.06;47.90;95382.72;5032930;28;20237;-59
2022/04/12 06:09:33;;;;;;;15.20;9.47;;;;;;;5.14;47.73;95386.56;5027028;28;20234;-60
2022/04/12 06:11:59;;;;;;;14.40;9.00;;;;;;;5.26;47.63;95386.50;5031898;28;20572;-61
2022/04/12 06:14:24;;;;;;;14.87;10.00;;;;;;;5.29;47.40;95388.91;5037068;28;20221;-60
2022/04/12 06:16:50;;;;;;;11.20;9.07;;;;;;;5.34;46.73;95385.97;5027888;28;20284;-61
2022/04/12 06:19:15;;;;;;;17.07;9.73;;;;;;;5.32;47.04;95390.47;5017899;28;20222;-61
2022/04/12 06:21:41;;;;;;;13.83;9.60;;;;;;;5.34;47.08;95399.00;5017698;28;20314;-61
2022/04/12 06:24:06;;;;;;;21.37;11.13;;;;;;;5.48;47.13;95396.25;5015178;28;20197;-61
2022/04/12 06:26:32;;;;;;;15.37;11.50;;;;;;;5.54;47.28;95405.41;5029151;28;20358;-60
2022/04/12 06:28:57;;;;;;;16.97;12.40;;;;;;;5.63;46.94;95403.88;5033047;28;20229;-59
2022/04/12 06:31:23;;;;;;;21.23;12.50;;;;;;;5.75;46.55;95396.00;5042197;28;20218;-60
2022/04/12 06:33:48;;;;;;;21.50;13.17;;;;;;;5.66;47.15;95406.25;5022114;28;20225;-61
2022/04/12 06:36:13;;;;;;;18.77;12.73;;;;;;;5.78;46.84;95401.94;5040874;28;20293;-66
2022/04/12 06:38:39;;;;;;;18.00;11.57;;;;;;;5.78;46.87;95402.78;5029766;28;20197;-66
2022/04/12 06:41:04;;;;;;;18.87;11.47;;;;;;;5.88;46.35;95410.72;5034217;28;20226;-67
2022/04/12 06:43:30;;;;;;;20.73;13.27;;;;;;;5.75;46.96;95408.22;5033036;28;20226;-65
2022/04/12 06:45:55;;;;;;;21.47;13.03;;;;;;;5.91;46.68;95413.13;5038590;28;20229;-65
2022/04/12 06:48:21;;;;;;;15.83;11.63;;;;;;;5.79;46.78;95409.63;5034136;28;20360;-64
2022/04/12 06:50:46;;;;;;;17.70;11.57;;;;;;;5.88;46.79;95413.34;5033105;28;20214;-65
2022/04/12 06:53:12;;;;;;;21.37;11.90;;;;;;;6.02;46.42;95412.38;5032804;28;20225;-66
2022/04/12 06:55:37;;;;;;;15.03;11.57;;;;;;;6.06;46.46;95406.78;5022623;28;20231;-65
2022/04/12 06:58:03;;;;;;;17.30;11.37;;;;;;;6.05;46.60;95404.31;5027682;28;20339;-65
2022/04/12 07:00:28;;;;;;;20.60;11.13;;;;;;;6.12;46.50;95414.19;5032885;28;20229;-67
2022/04/12 07:02:54;;;;;;;16.03;9.73;;;;;;;6.15;46.64;95406.13;5033681;28;20213;-66
2022/04/12 07:05:20;;;;;;;13.30;9.37;;;;;;;6.44;46.39;95412.69;5031963;28;20272;-66
2022/04/12 07:07:45;;;;;;;12.70;9.40;;;;;;;6.48;45.88;95412.34;5036416;28;20355;-68
2022/04/12 07:10:15;;;;;;;12.20;9.30;;;;;;;6.45;45.84;95407.34;5032553;28;20263;-68
2022/04/12 07:12:41;;;;;;;11.73;9.07;;;;;;;6.51;45.47;95403.44;5048185;28;20228;-69
2022/04/12 07:15:08;;;;;;;13.07;8.33;;;;;;;6.53;45.34;95401.53;5038292;28;20273;-69
2022/04/12 07:17:34;;;;;;;11.97;7.93;;;;;;;6.52;45.57;95408.56;5003682;28;20250;-69
2022/04/12 07:20:00;;;;;;;12.83;9.00;;;;;;;6.65;45.37;95395.34;5018789;28;20252;-65
2022/04/12 07:22:25;;;;;;;11.63;8.70;;;;;;;6.65;45.77;95397.16;5017378;28;20272;-69
2022/04/12 07:24:51;;;;;;;16.43;9.83;;;;;;;6.77;45.95;95399.66;5022001;28;20218;-64
2022/04/12 07:27:16;;;;;;;11.43;8.63;;;;;;;6.79;45.51;95404.72;5040129;28;20205;-64
2022/04/12 07:29:42;;;;;;;14.77;8.90;;;;;;;6.89;45.00;95408.31;5039127;28;20201;-63
2022/04/12 07:32:08;;;;;;;15.70;9.50;;;;;;;6.94;45.56;95403.56;5033131;28;20218;-62
2022/04/12 07:34:34;;;;;;;13.33;10.17;;;;;;;7.11;45.21;95404.00;5033477;28;20279;-62
2022/04/12 07:37:02;;;;;;;12.80;8.73;;;;;;;7.15;44.73;95400.22;5036467;28;20265;-63
2022/04/12 07:39:30;;;;;;;9.93;8.17;;;;;;;7.13;44.88;95395.09;5043041;28;20230;-61
2022/04/12 07:41:56;;;;;;;11.40;8.90;;;;;;;7.20;45.25;95400.69;5040786;28;20244;-64
2022/04/12 07:44:21;;;;;;;16.30;8.63;;;;;;;7.32;45.04;95394.44;5028602;28;20352;-72
2022/04/12 07:46:48;;;;;;;10.70;7.60;;;;;;;7.42;43.42;95397.19;5030922;28;20257;-66
2022/04/12 07:49:13;;;;;;;11.17;7.70;;;;;;;7.42;43.38;95390.16;5027696;28;20216;-60
2022/04/12 07:51:39;;;;;;;12.97;7.20;;;;;;;7.53;42.23;95384.06;5030368;28;20221;-58
2022/04/12 07:54:06;;;;;;;11.50;6.57;;;;;;;7.72;40.87;95391.25;5036522;28;20189;-66
2022/04/12 07:56:32;;;;;;;10.77;6.50;;;;;;;7.81;41.27;95387.88;5028801;28;20385;-62
2022/04/12 07:58:57;;;;;;;8.40;4.23;;;;;;;7.84;37.89;95382.41;5029568;28;20245;-65
2022/04/12 08:01:23;;;;;;;5.30;3.77;;;;;;;7.97;37.22;95381.41;5027141;28;20225;-68
2022/04/12 08:03:48;;;;;;;3.53;3.10;;;;;;;8.09;35.45;95390.84;5027158;28;20210;-69
2022/04/12 08:06:14;;;;;;;3.17;2.20;;;;;;;8.17;34.01;95388.41;5028472;28;20216;-62
2022/04/12 08:08:39;;;;;;;2.60;2.40;;;;;;;8.10;33.38;95382.88;5029458;28;20256;-68
2022/04/12 08:11:05;;;;;;;4.10;3.00;;;;;;;8.20;33.61;95377.66;5035186;28;20276;-71
2022/04/12 08:13:31;;;;;;;3.87;2.93;;;;;;;8.14;34.13;95375.56;5029926;28;20218;-65
2022/04/12 08:15:57;;;;;;;3.73;2.90;;;;;;;8.16;33.51;95371.03;5012154;28;20218;-68
2022/04/12 08:18:23;;;;;;;4.53;2.80;;;;;;;8.10;33.97;95367.16;5015682;28;20236;-69
2022/04/12 08:20:54;;;;;;;3.10;2.80;;;;;;;8.24;32.73;95363.38;5025096;28;20217;-69
2022/04/12 08:23:25;;;;;;;3.43;2.50;;;;;;;8.26;32.49;95353.59;5010437;28;20222;-64
2022/04/12 08:25:52;;;;;;;4.20;2.73;;;;;;;8.30;32.72;95354.97;5006646;28;20207;-65
2022/04/12 08:28:17;;;;;;;3.07;2.33;;;;;;;8.33;32.69;95352.09;5024580;28;20233;-64
2022/04/12 08:30:46;;;;;;;3.03;2.73;;;;;;;8.45;32.50;95359.94;5037340;28;20252;-70
2022/04/12 08:33:12;;;;;;;3.37;2.70;;;;;;;8.50;32.41;95361.22;5040405;28;20216;-62
2022/04/12 08:35:38;;;;;;;4.00;2.40;;;;;;;8.52;32.65;95358.44;5039632;28;20249;-69
2022/04/12 08:38:04;;;;;;;5.20;3.00;;;;;;;8.52;32.20;95350.56;5038032;28;20228;-61
2022/04/12 08:40:30;;;;;;;5.03;2.40;;;;;;;8.58;32.07;95344.81;5005746;28;20231;-61
2022/04/12 08:42:58;;;;;;;3.97;2.80;;;;;;;8.68;32.29;95353.53;5021134;28;20222;-62
2022/04/12 08:45:25;;;;;;;5.27;3.03;;;;;;;8.73;31.96;95347.91;5018914;28;20214;-65
2022/04/12 08:47:51;;;;;;;3.17;2.60;;;;;;;8.64;32.21;95343.47;5036004;28;20193;-62
2022/04/12 08:50:19;;;;;;;6.30;2.97;;;;;;;8.72;31.78;95341.03;5033299;28;20275;-64
2022/04/12 08:52:46;;;;;;;4.03;2.83;;;;;;;8.68;32.18;95334.38;5020774;28;20225;-63
2022/04/12 08:55:11;;;;;;;7.50;3.10;;;;;;;8.82;31.80;95332.22;5030970;28;20221;-64
2022/04/12 08:57:37;;;;;;;6.20;2.77;;;;;;;8.89;32.20;95327.25;5033586;28;20225;-65
2022/04/12 09:00:05;;;;;;;3.57;2.70;;;;;;;8.90;31.79;95334.19;5030023;28;20266;-64
2022/04/12 09:02:31;;;;;;;3.97;3.00;;;;;;;9.03;32.05;95324.28;5036382;28;20236;-66
2022/04/12 09:04:56;;;;;;;4.10;3.10;;;;;;;9.11;30.30;95331.44;5022798;28;20222;-64
2022/04/12 09:07:26;;;;;;;3.03;2.50;;;;;;;9.12;30.70;95322.63;5027409;28;20210;-64
2022/04/12 09:09:53;;;;;;;5.00;2.70;;;;;;;9.21;30.92;95318.34;5035177;28;20252;-65
2022/04/12 09:12:19;;;;;;;3.90;2.73;;;;;;;9.33;31.27;95317.28;5028077;28;20201;-66
2022/04/12 09:14:54;;;;;;;3.55;2.45;;;;;;;9.50;30.16;95321.00;5033522;28;20201;-61
2022/04/12 09:17:37;;;;;;;3.08;2.35;;;;;;;9.51;29.42;95301.66;5031143;28;20253;-66
2022/04/12 09:20:13;;;;;;;3.35;2.70;;;;;;;9.60;29.75;95306.09;5033133;28;20232;-65
2022/04/12 09:22:39;;;;;;;3.83;2.00;;;;;;;9.67;30.68;95298.47;5024215;28;20313;-61
2022/04/12 09:25:07;;;;;;;6.03;2.42;;;;;;;9.92;30.29;95313.66;5028530;28;20221;-66
2022/04/12 09:27:34;;;;;;;3.43;2.00;;;;;;;9.89;30.15;95302.59;5039379;28;20279;-65
2022/04/12 09:30:11;;;;;;;3.13;2.00;;;;;;;10.03;29.62;95304.81;5038135;28;20666;-64
2022/04/12 09:32:44;;;;;;;3.60;2.07;;;;;;;10.13;29.25;95307.38;5030522;28;20282;-63
2022/04/12 09:35:10;;;;;;;2.57;2.10;;;;;;;10.18;28.64;95313.06;5017176;28;20218;-64
2022/04/12 09:37:42;;;;;;;4.57;2.30;;;;;;;10.30;28.91;95305.88;5028035;28;20252;-61
2022/04/12 09:40:11;;;;;;;2.23;1.80;;;;;;;10.39;28.54;95307.63;5028824;28;20313;-65
2022/04/12 09:42:50;;;;;;;3.87;2.30;;;;;;;10.45;29.03;95293.94;5037318;28;20221;-60
2022/04/12 09:45:24;;;;;;;3.00;2.17;;;;;;;10.51;28.61;95282.84;5033760;28;20240;-61
2022/04/12 09:47:51;;;;;;;3.57;2.10;;;;;;;10.57;28.52;95284.88;5039553;28;20206;-65
2022/04/12 09:50:20;;;;;;;2.43;2.10;;;;;;;10.72;28.83;95292.28;5034424;28;20228;-65
2022/04/12 09:52:57;;;;;;;2.53;1.90;;;;;;;10.73;28.81;95278.16;5037907;28;20229;-61
2022/04/12 09:55:41;;;;;;;3.50;1.80;;;;;;;10.97;28.15;95278.44;5009681;28;20218;-60
2022/04/12 09:58:09;;;;;;;2.50;2.00;;;;;;;10.95;28.39;95269.88;5028706;28;20229;-62
2022/04/12 10:00:35;;;;;;;2.65;1.80;;;;;;;11.09;29.10;95263.25;5037363;28;20253;-66
2022/04/12 10:03:12;;;;;;;2.27;1.67;;;;;;;11.41;29.22;95268.03;5034228;28;20206;-65
2022/04/12 10:05:38;;;;;;;5.20;1.83;;;;;;;11.46;29.79;95257.84;5032502;28;20236;-63
2022/04/12 10:08:05;;;;;;;3.65;1.83;;;;;;;11.76;29.59;95250.56;5016943;28;20230;-66
2022/04/12 10:10:32;;;;;;;2.45;1.88;;;;;;;11.95;28.18;95239.03;5025735;28;20334;-63
2022/04/12 10:13:00;;;;;;;3.17;1.70;;;;;;;12.11;28.32;95231.22;5039362;28;20249;-68
2022/04/12 10:15:28;;;;;;;2.90;1.58;;;;;;;12.32;27.88;95227.34;5039752;28;20282;-61
2022/04/12 10:17:54;;;;;;;4.00;2.03;;;;;;;12.17;27.92;95235.03;5042181;28;20233;-64
2022/04/12 10:20:22;;;;;;;2.67;1.60;;;;;;;12.20;28.56;95224.19;5020437;28;20305;-63
2022/04/12 10:22:49;;;;;;;3.33;1.67;;;;;;;12.45;27.83;95217.19;5034723;28;20536;-67
2022/04/12 10:25:20;;;;;;;2.28;1.73;;;;;;;12.47;27.29;95227.59;5035820;28;20242;-65
2022/04/12 10:27:55;;;;;;;2.22;1.92;;;;;;;12.52;27.46;95218.22;5023888;28;20773;-64
2022/04/12 10:30:25;;;;;;;5.32;2.13;;;;;;;12.67;27.91;95215.81;5042917;28;20223;-67
2022/04/12 10:33:07;;;;;;;2.80;2.00;;;;;;;12.92;27.62;95215.91;5039542;28;20213;-69
2022/04/12 10:35:45;;;;;;;1.48;1.38;;;;;;;12.69;26.27;95211.19;5040196;28;20259;-64
2022/04/12 10:38:12;;;;;;;1.45;1.30;;;;;;;12.68;26.77;95199.00;5040009;28;20232;-74
2022/04/12 10:40:42;;;;;;;2.85;1.30;;;;;;;12.91;27.14;95209.78;5037384;28;20237;-68
2022/04/12 10:43:10;;;;;;;2.60;1.75;;;;;;;13.14;27.02;95198.59;5034369;28;20225;-72
2022/04/12 10:45:45;;;;;;;2.72;1.63;;;;;;;13.36;26.76;95202.44;5038616;28;20229;-68
2022/04/12 10:48:21;;;;;;;2.95;1.30;;;;;;;13.40;26.43;95199.31;5043861;28;20216;-67
2022/04/12 10:50:48;;;;;;;3.28;1.30;;;;;;;13.62;26.47;95202.28;5043335;28;20209;-69
2022/04/12 10:53:14;;;;;;;3.47;1.67;;;;;;;13.72;25.88;95207.44;5042223;28;20265;-69
2022/04/12 10:55:41;;;;;;;1.58;1.38;;;;;;;13.64;25.67;95187.94;5026501;28;20304;-63
2022/04/12 10:58:28;;;;;;;3.92;1.52;;;;;;;13.50;25.80;95188.59;5021470;28;20221;-66
2022/04/12 11:00:54;;;;;;;3.17;1.48;;;;;;;13.65;25.97;95191.38;5031982;28;20328;-64
2022/04/12 11:03:26;;;;;;;1.80;1.50;;;;;;;13.85;26.20;95184.78;5018918;28;20241;-70
2022/04/12 11:05:54;;;;;;;1.90;1.50;;;;;;;14.02;26.54;95172.34;5039176;28;20217;-68
2022/04/12 11:08:19;;;;;;;4.00;1.55;;;;;;;14.00;25.97;95190.19;5036154;28;20213;-61
2022/04/12 11:10:51;;;;;;;2.75;1.60;;;;;;;14.10;26.65;95174.97;5038457;28;20290;-70
2022/04/12 11:13:20;;;;;;;4.18;3.17;;;;;;;14.46;25.86;95168.38;5040427;28;20222;-65
2022/04/12 11:15:54;;;;;;;2.72;1.80;;;;;;;14.41;24.43;95171.56;5027645;28;20214;-70
2022/04/12 11:18:20;;;;;;;2.50;1.80;;;;;;;14.43;25.04;95166.91;5017833;28;20235;-65
2022/04/12 11:21:01;;;;;;;2.47;1.73;;;;;;;14.64;24.96;95163.69;5035587;28;20266;-59
2022/04/12 11:23:45;;;;;;;4.22;1.60;;;;;;;14.94;25.12;95161.22;5029633;28;20234;-67
2022/04/12 11:26:37;;;;;;;2.00;1.77;;;;;;;15.01;24.44;95156.88;5038568;28;20296;-66
2022/04/12 11:29:18;;;;;;;2.78;2.08;;;;;;;15.15;23.64;95153.47;5035221;28;20229;-62
2022/04/12 11:31:47;;;;;;;2.08;1.63;;;;;;;15.07;23.79;95144.75;5034446;28;20218;-72
2022/04/12 11:34:13;;;;;;;2.55;1.55;;;;;;;15.12;23.73;95145.06;5042941;28;20214;-72
2022/04/12 11:36:43;;;;;;;4.30;1.85;;;;;;;15.40;23.67;95140.06;5020869;28;20225;-72
2022/04/12 11:39:08;;;;;;;2.95;1.40;;;;;;;15.54;23.58;95141.09;5021001;28;20612;-61